createdAt,value
2018-07-26T00:00:50.841Z,100981.46
2018-07-26T00:03:19.936Z,100983.22
2018-07-26T00:05:49.108Z,100983.16
2018-07-26T00:08:18.216Z,100976.45
2018-07-26T00:10:47.345Z,100977.33
2018-07-26T00:13:16.432Z,100979.66
2018-07-26T00:15:45.536Z,100980.47
2018-07-26T00:18:14.644Z,100985.94
2018-07-26T00:20:43.745Z,100988.73
2018-07-26T00:23:12.869Z,100985.84
2018-07-26T00:25:41.976Z,100984.12
2018-07-26T00:28:11.048Z,100989.41
2018-07-26T00:30:40.160Z,100984.58
2018-07-26T00:33:09.263Z,100986.84
2018-07-26T00:35:38.364Z,100986.20
2018-07-26T00:38:07.448Z,100979.84
2018-07-26T00:40:36.548Z,100986.88
2018-07-26T00:43:05.875Z,100984.67
2018-07-26T00:45:35.005Z,100987.01
2018-07-26T00:48:04.093Z,100983.14
2018-07-26T00:50:33.188Z,100986.69
2018-07-26T00:53:02.299Z,100980.83
2018-07-26T00:55:31.392Z,100985.66
2018-07-26T00:58:00.467Z,100983.67
2018-07-26T01:00:29.608Z,100984.88
2018-07-26T01:02:58.809Z,100994.06
2018-07-26T01:05:27.896Z,100993.52
2018-07-26T01:07:57.025Z,100986.40
2018-07-26T01:10:26.132Z,100996.48
2018-07-26T01:12:55.236Z,100995.84
2018-07-26T01:15:24.350Z,100990.18
2018-07-26T01:17:53.512Z,100982.06
2018-07-26T01:20:22.589Z,100984.55
2018-07-26T01:22:51.697Z,100987.28
2018-07-26T01:25:20.768Z,100986.92
2018-07-26T01:27:49.868Z,100985.70
2018-07-26T01:30:18.964Z,100976.55
2018-07-26T01:32:48.056Z,100980.77
2018-07-26T01:35:17.155Z,100978.92
2018-07-26T01:37:46.273Z,100975.00
2018-07-26T01:40:15.348Z,100976.35
2018-07-26T01:42:55.776Z,100972.92
2018-07-26T01:45:24.857Z,100975.95
2018-07-26T01:47:53.965Z,100976.19
2018-07-26T01:50:23.019Z,100975.09
2018-07-26T01:52:52.111Z,100976.11
2018-07-26T01:55:21.180Z,100974.60
2018-07-26T01:57:50.288Z,100971.66
2018-07-26T02:00:19.352Z,100971.05
2018-07-26T02:02:48.436Z,100971.25
2018-07-26T02:05:17.548Z,100970.84
2018-07-26T02:07:46.637Z,100969.25
2018-07-26T02:10:15.723Z,100962.81
2018-07-26T02:12:44.812Z,100966.52
2018-07-26T02:15:13.891Z,100970.30
2018-07-26T02:17:42.976Z,100972.93
2018-07-26T02:20:12.052Z,100968.73
2018-07-26T02:22:41.148Z,100968.31
2018-07-26T02:25:10.212Z,100968.64
2018-07-26T02:27:39.327Z,100959.19
2018-07-26T02:30:08.412Z,100966.16
2018-07-26T02:32:37.512Z,100965.42
2018-07-26T02:35:06.594Z,100958.38
2018-07-26T02:37:35.692Z,100959.73
2018-07-26T02:40:04.760Z,100959.02
2018-07-26T02:42:33.870Z,100952.27
2018-07-26T02:45:02.981Z,100954.28
2018-07-26T02:47:32.101Z,100961.99
2018-07-26T02:50:01.204Z,100960.28
2018-07-26T02:52:30.308Z,100972.05
2018-07-26T02:54:59.600Z,100964.97
2018-07-26T02:57:28.740Z,100966.27
2018-07-26T02:59:57.840Z,100972.87
2018-07-26T03:02:26.944Z,100975.33
2018-07-26T03:04:56.053Z,100980.25
2018-07-26T03:07:25.164Z,100979.39
2018-07-26T03:09:54.232Z,100966.00
2018-07-26T03:12:23.332Z,100980.98
2018-07-26T03:14:52.416Z,100980.05
2018-07-26T03:17:21.513Z,100980.57
2018-07-26T03:19:50.588Z,100976.25
2018-07-26T03:22:19.744Z,100973.08
2018-07-26T03:24:48.835Z,100982.98
2018-07-26T03:27:17.958Z,100982.19
2018-07-26T03:29:47.079Z,100985.42
2018-07-26T03:32:16.193Z,100982.33
2018-07-26T03:34:45.255Z,100984.59
2018-07-26T03:37:14.391Z,100982.47
2018-07-26T03:39:43.506Z,100980.39
2018-07-26T03:42:12.636Z,100983.58
2018-07-26T03:44:41.808Z,100978.47
2018-07-26T03:47:11.592Z,100978.47
2018-07-26T03:49:40.684Z,100962.28
2018-07-26T03:52:09.748Z,100981.96
2018-07-26T03:54:38.851Z,100974.55
2018-07-26T03:57:08.000Z,100979.63
2018-07-26T03:59:37.122Z,100988.20
2018-07-26T04:02:06.347Z,100983.98
2018-07-26T04:04:35.479Z,100984.77
2018-07-26T04:07:04.552Z,100989.02
2018-07-26T04:09:33.645Z,100986.83
2018-07-26T04:12:02.769Z,100990.19
2018-07-26T04:14:31.857Z,100993.61
2018-07-26T04:17:00.930Z,100993.65
2018-07-26T04:19:30.024Z,100996.60
2018-07-26T04:21:59.112Z,100997.45
2018-07-26T04:24:28.207Z,100998.28
2018-07-26T04:26:57.317Z,101000.41
2018-07-26T04:29:26.432Z,101002.80
2018-07-26T04:31:56.468Z,101008.42
2018-07-26T04:34:25.500Z,101013.74
2018-07-26T04:36:54.595Z,101006.50
2018-07-26T04:39:23.692Z,101006.68
2018-07-26T04:41:52.763Z,101004.52
2018-07-26T04:44:21.872Z,101007.61
2018-07-26T04:46:50.956Z,101008.80
2018-07-26T04:49:20.052Z,101011.95
2018-07-26T04:51:49.126Z,101011.84
2018-07-26T04:54:18.296Z,101007.88
2018-07-26T04:56:48.394Z,101004.93
2018-07-26T04:59:17.508Z,101004.14
2018-07-26T05:01:46.636Z,101012.68
2018-07-26T05:04:15.768Z,101013.67
2018-07-26T05:06:44.848Z,101021.00
2018-07-26T05:09:13.988Z,101015.34
2018-07-26T05:11:43.067Z,101023.69
2018-07-26T05:14:12.169Z,101022.05
2018-07-26T05:16:41.307Z,101025.37
2018-07-26T05:19:10.468Z,101020.30
2018-07-26T05:21:39.632Z,101026.59
2018-07-26T05:24:10.173Z,101022.83
2018-07-26T05:26:40.308Z,101026.55
2018-07-26T05:29:09.406Z,101025.35
2018-07-26T05:31:38.548Z,101027.66
2018-07-26T05:34:07.784Z,101030.88
2018-07-26T05:36:37.059Z,101031.59
2018-07-26T05:39:09.024Z,101038.17
2018-07-26T05:41:38.227Z,101038.44
2018-07-26T05:44:07.346Z,101032.28
2018-07-26T05:46:36.536Z,101027.64
2018-07-26T05:49:05.739Z,101029.31
2018-07-26T05:51:34.916Z,101033.63
2018-07-26T05:54:04.049Z,101031.42
2018-07-26T05:56:33.164Z,101035.42
2018-07-26T05:59:02.316Z,101034.89
2018-07-26T06:01:31.588Z,101040.16
2018-07-26T06:04:01.214Z,101042.22
2018-07-26T06:06:30.417Z,101043.58
2018-07-26T06:08:59.623Z,101041.39
2018-07-26T06:11:28.768Z,101038.06
2018-07-26T06:13:57.912Z,101043.53
2018-07-26T06:16:27.659Z,101047.45
2018-07-26T06:18:56.797Z,101045.79
2018-07-26T06:21:26.072Z,101045.28
2018-07-26T06:23:55.204Z,101053.19
2018-07-26T06:26:24.300Z,101047.81
2018-07-26T06:28:53.714Z,101053.41
2018-07-26T06:31:22.895Z,101053.20
2018-07-26T06:33:52.073Z,101054.83
2018-07-26T06:36:21.180Z,101059.18
2018-07-26T06:38:50.340Z,101051.91
2018-07-26T06:41:19.432Z,101053.88
2018-07-26T06:43:48.546Z,101060.56
2018-07-26T06:46:17.670Z,101053.19
2018-07-26T06:48:46.788Z,101054.95
2018-07-26T06:51:16.005Z,101056.19
2018-07-26T06:53:45.150Z,101059.66
2018-07-26T06:56:14.265Z,101055.55
2018-07-26T06:58:43.378Z,101055.11
2018-07-26T07:01:12.469Z,101056.36
2018-07-26T07:03:41.581Z,101055.06
2018-07-26T07:06:10.698Z,101057.41
2018-07-26T07:08:39.787Z,101055.33
2018-07-26T07:11:08.893Z,101057.56
2018-07-26T07:13:38.070Z,101058.51
2018-07-26T07:16:07.233Z,101052.77
2018-07-26T07:18:36.338Z,101057.55
2018-07-26T07:21:05.516Z,101062.85
2018-07-26T07:23:34.649Z,101062.12
2018-07-26T07:26:03.850Z,101066.23
2018-07-26T07:28:32.928Z,101063.14
2018-07-26T07:31:02.063Z,101059.23
2018-07-26T07:33:31.171Z,101063.17
2018-07-26T07:36:00.309Z,101059.14
2018-07-26T07:38:29.416Z,101060.55
2018-07-26T07:40:58.562Z,101056.84
2018-07-26T07:43:27.680Z,101063.13
2018-07-26T07:45:56.805Z,101062.83
2018-07-26T07:48:25.945Z,101062.98
2018-07-26T07:50:55.514Z,101057.41
2018-07-26T07:53:24.670Z,101061.97
2018-07-26T07:55:53.811Z,101067.64
2018-07-26T07:58:23.025Z,101067.64
2018-07-26T08:00:52.164Z,101065.25
2018-07-26T08:03:21.290Z,101061.45
2018-07-26T08:05:50.472Z,101061.67
2018-07-26T08:08:19.585Z,101060.70
2018-07-26T08:10:48.707Z,101068.81
2018-07-26T08:13:17.777Z,101065.11
2018-07-26T08:15:47.634Z,101064.45
2018-07-26T08:18:19.670Z,101066.48
2018-07-26T08:20:48.769Z,101063.59
2018-07-26T08:23:17.844Z,101061.72
2018-07-26T08:25:47.024Z,101065.92
2018-07-26T08:28:16.109Z,101061.39
2018-07-26T08:30:45.209Z,101070.39
2018-07-26T08:33:14.311Z,101065.94
2018-07-26T08:35:43.388Z,101063.99
2018-07-26T08:38:12.528Z,101064.05
2018-07-26T08:40:41.612Z,101067.84
2018-07-26T08:43:10.726Z,101065.52
2018-07-26T08:45:39.832Z,101060.81
2018-07-26T08:48:08.955Z,101064.96
2018-07-26T08:50:38.388Z,101062.33
2018-07-26T08:53:07.505Z,101065.28
2018-07-26T08:55:36.636Z,101060.43
2018-07-26T08:58:05.736Z,101065.86
2018-07-26T09:00:34.841Z,101056.97
2018-07-26T09:03:03.936Z,101063.26
2018-07-26T09:05:33.048Z,101061.84
2018-07-26T09:08:02.179Z,101065.23
2018-07-26T09:10:31.264Z,101062.98
2018-07-26T09:13:00.407Z,101058.47
2018-07-26T09:15:29.496Z,101064.96
2018-07-26T09:17:58.634Z,101060.93
2018-07-26T09:20:27.709Z,101062.31
2018-07-26T09:22:56.788Z,101065.38
2018-07-26T09:25:25.904Z,101066.08
2018-07-26T09:27:55.021Z,101060.62
2018-07-26T09:30:24.567Z,101059.86
2018-07-26T09:32:53.649Z,101058.16
2018-07-26T09:35:23.179Z,101063.86
2018-07-26T09:37:52.236Z,101059.14
2018-07-26T09:40:21.360Z,101051.16
2018-07-26T09:42:50.520Z,101057.60
2018-07-26T09:45:19.703Z,101045.70
2018-07-26T09:47:48.800Z,101048.80
2018-07-26T09:50:17.969Z,101045.12
2018-07-26T09:52:47.223Z,101047.20
2018-07-26T09:55:16.452Z,101043.82
2018-07-26T09:57:45.684Z,101042.50
2018-07-26T10:00:18.992Z,101045.52
2018-07-26T10:02:48.071Z,101042.38
2018-07-26T10:05:17.211Z,101038.92
2018-07-26T10:07:46.288Z,101032.53
2018-07-26T10:10:15.404Z,101034.03
2018-07-26T10:12:44.505Z,101040.56
2018-07-26T10:15:13.577Z,101036.19
2018-07-26T10:17:42.676Z,101036.87
2018-07-26T10:20:11.810Z,101039.46
2018-07-26T10:22:40.919Z,101040.37
2018-07-26T10:25:09.992Z,101038.42
2018-07-26T10:27:39.181Z,101023.72
2018-07-26T10:30:08.792Z,101030.84
2018-07-26T10:32:38.128Z,101031.55
2018-07-26T10:35:07.240Z,101026.36
2018-07-26T10:37:36.348Z,101028.12
2018-07-26T10:40:05.580Z,101030.00
2018-07-26T10:42:34.668Z,101024.88
2018-07-26T10:45:03.765Z,101030.22
2018-07-26T10:47:34.140Z,101032.12
2018-07-26T10:50:04.710Z,101026.34
2018-07-26T10:52:33.760Z,101019.50
2018-07-26T10:55:02.832Z,101025.41
2018-07-26T10:57:31.992Z,101024.61
2018-07-26T11:00:01.116Z,101023.32
2018-07-26T11:02:30.224Z,101016.59
2018-07-26T11:04:59.320Z,101020.58
2018-07-26T11:07:28.591Z,101022.23
2018-07-26T11:09:57.675Z,101017.16
2018-07-26T11:12:27.244Z,101025.36
2018-07-26T11:15:01.828Z,101016.48
2018-07-26T11:17:31.804Z,101015.91
2018-07-26T11:20:02.349Z,101010.56
2018-07-26T11:22:31.540Z,101010.70
2018-07-26T11:25:00.608Z,101010.42
2018-07-26T11:27:29.700Z,101009.91
2018-07-26T11:29:58.829Z,101015.67
2018-07-26T11:32:29.732Z,101015.11
2018-07-26T11:35:00.051Z,101010.44
2018-07-26T11:37:29.296Z,101008.56
2018-07-26T11:40:00.714Z,101010.59
2018-07-26T11:42:32.327Z,101008.11
2018-07-26T11:45:04.138Z,101004.95
2018-07-26T11:47:33.308Z,101003.83
2018-07-26T11:50:02.422Z,101000.03
2018-07-26T11:52:31.517Z,101005.39
2018-07-26T11:55:00.612Z,100997.24
2018-07-26T11:57:29.788Z,100994.56
2018-07-26T11:59:58.920Z,100996.02
2018-07-26T12:02:28.031Z,100993.23
2018-07-26T12:04:57.108Z,100988.83
2018-07-26T12:07:26.204Z,101001.86
2018-07-26T12:09:55.301Z,100982.09
2018-07-26T12:12:24.392Z,100980.57
2018-07-26T12:14:53.989Z,100983.53
2018-07-26T12:17:23.072Z,100982.71
2018-07-26T12:19:52.181Z,100978.52
2018-07-26T12:22:21.269Z,100975.69
2018-07-26T12:24:51.308Z,100969.54
2018-07-26T12:27:20.658Z,100985.19
2018-07-26T12:29:49.834Z,100970.25
2018-07-26T12:32:18.934Z,100962.84
2018-07-26T12:34:48.092Z,100967.19
2018-07-26T12:37:17.258Z,100965.86
2018-07-26T12:39:46.649Z,100961.52
2018-07-26T12:42:15.980Z,100955.69
2018-07-26T12:44:45.076Z,100964.72
2018-07-26T12:47:14.249Z,100958.56
2018-07-26T12:49:43.412Z,100949.07
2018-07-26T12:52:17.456Z,100953.66
2018-07-26T12:54:46.599Z,100948.23
2018-07-26T12:57:15.868Z,100949.00
2018-07-26T12:59:45.048Z,100943.13
2018-07-26T13:02:14.290Z,100952.63
2018-07-26T13:04:43.483Z,100942.64
2018-07-26T13:07:12.608Z,100951.67
2018-07-26T13:09:42.502Z,100945.47
2018-07-26T13:12:12.516Z,100935.27
2018-07-26T13:14:41.726Z,100938.29
2018-07-26T13:17:10.769Z,100937.52
2018-07-26T13:19:39.924Z,100939.52
2018-07-26T13:22:09.039Z,100939.62
2018-07-26T13:24:38.205Z,100938.72
2018-07-26T13:27:07.461Z,100932.83
2018-07-26T13:29:36.537Z,100923.64
2018-07-26T13:32:06.088Z,100934.12
2018-07-26T13:34:35.336Z,100926.53
2018-07-26T13:37:04.404Z,100927.37
2018-07-26T13:39:33.520Z,100922.68
2018-07-26T13:42:02.616Z,100923.07
2018-07-26T13:44:31.716Z,100925.11
2018-07-26T13:47:00.812Z,100928.60
2018-07-26T13:49:29.905Z,100913.59
2018-07-26T13:51:58.972Z,100921.80
2018-07-26T13:54:28.202Z,100918.41
2018-07-26T13:56:57.276Z,100921.54
2018-07-26T13:59:26.360Z,100920.36
2018-07-26T14:01:56.416Z,100915.71
2018-07-26T14:04:25.522Z,100914.23
2018-07-26T14:06:54.591Z,100910.65
2018-07-26T14:09:23.692Z,100910.64
2018-07-26T14:11:52.868Z,100907.50
2018-07-26T14:14:28.497Z,100906.75
2018-07-26T14:16:57.672Z,100902.78
2018-07-26T14:19:26.784Z,100901.10
2018-07-26T14:21:55.960Z,100904.59
2018-07-26T14:24:25.684Z,100897.77
2018-07-26T14:26:54.791Z,100889.67
2018-07-26T14:29:24.034Z,100889.93
2018-07-26T14:31:53.068Z,100905.52
2018-07-26T14:34:22.187Z,100898.63
2018-07-26T14:36:51.290Z,100889.13
2018-07-26T14:39:20.400Z,100896.12
2018-07-26T14:41:49.464Z,100896.72
2018-07-26T14:44:18.568Z,100890.08
2018-07-26T14:46:47.640Z,100896.60
2018-07-26T14:49:16.739Z,100884.14
2018-07-26T14:51:45.887Z,100888.84
2018-07-26T14:54:14.924Z,100887.15
2018-07-26T14:56:44.920Z,100881.23
2018-07-26T14:59:14.140Z,100879.69
2018-07-26T15:01:43.312Z,100882.56
2018-07-26T15:04:12.744Z,100873.28
2018-07-26T15:06:41.879Z,100876.23
2018-07-26T15:09:11.209Z,100876.34
2018-07-26T15:11:40.464Z,100875.56
2018-07-26T15:14:09.625Z,100871.48
2018-07-26T15:16:38.732Z,100876.93
2018-07-26T15:19:07.917Z,100872.95
2018-07-26T15:21:37.304Z,100867.98
2018-07-26T15:24:06.796Z,100866.43
2018-07-26T15:26:35.913Z,100873.64
2018-07-26T15:29:05.080Z,100870.28
2018-07-26T15:31:34.204Z,100871.44
2018-07-26T15:34:03.304Z,100862.64
2018-07-26T15:36:32.423Z,100861.27
2018-07-26T15:39:01.536Z,100864.45
2018-07-26T15:41:30.688Z,100861.01
2018-07-26T15:43:59.736Z,100855.24
2018-07-26T15:46:28.860Z,100846.98
2018-07-26T15:48:57.982Z,100850.95
2018-07-26T15:51:27.191Z,100851.50
2018-07-26T15:53:56.293Z,100853.67
2018-07-26T15:56:25.470Z,100848.20
2018-07-26T15:58:55.570Z,100860.77
2018-07-26T16:01:24.841Z,100857.03
2018-07-26T16:03:53.948Z,100857.03
2018-07-26T16:06:23.097Z,100853.50
2018-07-26T16:08:52.212Z,100858.66
2018-07-26T16:11:22.295Z,100857.33
2018-07-26T16:13:51.384Z,100856.96
2018-07-26T16:16:20.588Z,100852.18
2018-07-26T16:18:49.692Z,100850.71
2018-07-26T16:21:18.842Z,100850.71
2018-07-26T16:23:47.948Z,100842.03
2018-07-26T16:26:17.172Z,100851.86
2018-07-26T16:28:46.407Z,100851.49
2018-07-26T16:31:15.457Z,100849.43
2018-07-26T16:33:44.596Z,100857.00
2018-07-26T16:36:13.693Z,100850.86
2018-07-26T16:38:42.800Z,100845.19
2018-07-26T16:41:11.901Z,100843.27
2018-07-26T16:43:41.043Z,100843.67
2018-07-26T16:46:10.145Z,100844.66
2018-07-26T16:48:39.344Z,100842.64
2018-07-26T16:51:08.561Z,100835.66
2018-07-26T16:53:37.716Z,100842.17
2018-07-26T16:56:06.829Z,100841.56
2018-07-26T16:58:36.118Z,100836.59
2018-07-26T17:01:05.092Z,100835.74
2018-07-26T17:03:34.252Z,100836.72
2018-07-26T17:06:03.364Z,100836.16
2018-07-26T17:08:32.541Z,100833.89
2018-07-26T17:11:01.648Z,100823.36
2018-07-26T17:13:30.809Z,100833.02
2018-07-26T17:15:59.925Z,100841.80
2018-07-26T17:18:29.059Z,100833.67
2018-07-26T17:20:58.520Z,100837.54
2018-07-26T17:23:27.655Z,100832.94
2018-07-26T17:25:56.773Z,100836.03
2018-07-26T17:28:25.880Z,100833.14
2018-07-26T17:30:54.977Z,100832.97
2018-07-26T17:33:24.097Z,100838.22
2018-07-26T17:35:53.556Z,100833.28
2018-07-26T17:38:22.700Z,100835.15
2018-07-26T17:40:51.784Z,100834.02
2018-07-26T17:43:20.884Z,100838.20
2018-07-26T17:45:50.916Z,100835.74
2018-07-26T17:48:20.041Z,100839.34
2018-07-26T17:50:49.287Z,100837.62
2018-07-26T17:53:18.611Z,100842.33
2018-07-26T17:55:47.737Z,100844.55
2018-07-26T17:58:16.844Z,100834.27
2018-07-26T18:00:46.045Z,100836.81
2018-07-26T18:03:15.173Z,100831.32
2018-07-26T18:05:44.319Z,100838.55
2018-07-26T18:08:13.412Z,100836.91
2018-07-26T18:10:42.512Z,100846.89
2018-07-26T18:13:11.678Z,100842.71
2018-07-26T18:15:40.723Z,100842.97
2018-07-26T18:18:09.828Z,100842.59
2018-07-26T18:20:38.931Z,100839.67
2018-07-26T18:23:08.053Z,100842.80
2018-07-26T18:25:37.164Z,100842.93
2018-07-26T18:28:07.145Z,100844.83
2018-07-26T18:30:36.542Z,100850.92
2018-07-26T18:33:05.665Z,100852.34
2018-07-26T18:35:34.740Z,100852.67
2018-07-26T18:38:03.922Z,100848.46
2018-07-26T18:40:32.931Z,100852.80
2018-07-26T18:43:02.072Z,100852.05
2018-07-26T18:45:31.165Z,100858.89
2018-07-26T18:48:00.261Z,100869.06
2018-07-26T18:50:29.348Z,100862.55
2018-07-26T18:52:58.449Z,100869.91
2018-07-26T18:55:27.550Z,100864.90
2018-07-26T18:57:56.688Z,100872.84
2018-07-26T19:00:26.500Z,100873.17
2018-07-26T19:02:56.536Z,100879.16
2018-07-26T19:05:25.745Z,100877.46
2018-07-26T19:07:54.840Z,100881.05
2018-07-26T19:10:23.944Z,100885.09
2018-07-26T19:12:53.024Z,100888.62
2018-07-26T19:15:22.169Z,100887.33
2018-07-26T19:17:51.265Z,100892.56
2018-07-26T19:20:20.376Z,100891.93
2018-07-26T19:22:49.498Z,100896.30
2018-07-26T19:25:18.628Z,100899.79
2018-07-26T19:27:47.736Z,100899.85
2018-07-26T19:30:16.864Z,100908.55
2018-07-26T19:32:46.784Z,100906.16
2018-07-26T19:35:15.917Z,100909.89
2018-07-26T19:37:45.006Z,100903.37
2018-07-26T19:40:14.100Z,100911.89
2018-07-26T19:42:43.178Z,100911.38
2018-07-26T19:45:12.331Z,100912.83
2018-07-26T19:47:41.645Z,100911.30
2018-07-26T19:50:10.820Z,100908.95
2018-07-26T19:52:40.005Z,100906.22
2018-07-26T19:55:10.743Z,100913.64
2018-07-26T19:57:39.839Z,100919.57
2018-07-26T20:00:09.648Z,100913.53
2018-07-26T20:02:39.437Z,100922.16
2018-07-26T20:05:09.173Z,100922.22
2018-07-26T20:07:38.569Z,100925.53
2018-07-26T20:10:09.724Z,100930.25
2018-07-26T20:12:38.844Z,100920.16
2018-07-26T20:15:08.328Z,100925.06
2018-07-26T20:17:37.469Z,100925.27
2018-07-26T20:20:09.493Z,100931.38
2018-07-26T20:22:38.623Z,100931.03
2018-07-26T20:25:07.743Z,100929.98
2018-07-26T20:27:36.842Z,100922.75
2018-07-26T20:30:07.615Z,100927.78
2018-07-26T20:32:36.984Z,100927.43
2018-07-26T20:35:06.525Z,100926.66
2018-07-26T20:37:35.637Z,100927.06
2018-07-26T20:40:06.337Z,100926.88
2018-07-26T20:42:35.437Z,100929.63
2018-07-26T20:45:05.648Z,100937.00
2018-07-26T20:47:34.745Z,100938.53
2018-07-26T20:50:05.307Z,100954.88
2018-07-26T20:52:34.565Z,100954.06
2018-07-26T20:55:04.038Z,100956.06
2018-07-26T20:57:33.163Z,100966.59
2018-07-26T21:00:02.288Z,100972.71
2018-07-26T21:02:31.375Z,100967.00
2018-07-26T21:05:00.521Z,100977.17
2018-07-26T21:07:36.364Z,100970.07
2018-07-26T21:10:06.621Z,100966.45
2018-07-26T21:12:35.836Z,100972.86
2018-07-26T21:15:05.851Z,100969.37
2018-07-26T21:17:35.048Z,100983.22
2018-07-26T21:20:04.641Z,100979.96
2018-07-26T21:22:33.748Z,100982.98
2018-07-26T21:25:02.845Z,100974.48
2018-07-26T21:27:31.947Z,100980.59
2018-07-26T21:30:01.048Z,100980.94
2018-07-26T21:32:30.144Z,100976.93
2018-07-26T21:34:59.248Z,100973.47
2018-07-26T21:37:28.333Z,100972.84
2018-07-26T21:39:57.444Z,100973.16
2018-07-26T21:42:26.528Z,100977.48
2018-07-26T21:44:55.620Z,100975.72
2018-07-26T21:47:24.720Z,100973.80
2018-07-26T21:49:53.804Z,100976.26
2018-07-26T21:52:22.876Z,100976.81
2018-07-26T21:54:52.104Z,100978.59
2018-07-26T21:57:21.184Z,100977.67
2018-07-26T21:59:50.280Z,100971.63
2018-07-26T22:02:19.467Z,100979.80
2018-07-26T22:04:48.491Z,100981.21
2018-07-26T22:07:17.604Z,100976.55
2018-07-26T22:09:46.998Z,100977.96
2018-07-26T22:12:16.117Z,100980.94
2018-07-26T22:14:45.180Z,100983.16
2018-07-26T22:17:14.289Z,100987.16
2018-07-26T22:19:43.397Z,100987.09
2018-07-26T22:22:12.560Z,100985.38
2018-07-26T22:24:41.588Z,100988.48
2018-07-26T22:27:10.677Z,100989.50
2018-07-26T22:29:39.752Z,100985.22
2018-07-26T22:32:08.841Z,100987.84
2018-07-26T22:34:37.892Z,100983.95
2018-07-26T22:37:07.020Z,100982.85
2018-07-26T22:39:36.088Z,100985.97
2018-07-26T22:42:05.172Z,100986.37
2018-07-26T22:44:34.232Z,100984.75
2018-07-26T22:47:03.321Z,100987.83
2018-07-26T22:49:32.391Z,100985.91
2018-07-26T22:52:01.468Z,100985.20
2018-07-26T22:54:30.531Z,100988.20
2018-07-26T22:56:59.620Z,100993.60
2018-07-26T22:59:28.683Z,100990.31
2018-07-26T23:01:57.792Z,100992.82
2018-07-26T23:04:26.877Z,100997.91
2018-07-26T23:06:55.962Z,100998.52
2018-07-26T23:09:25.014Z,100992.82
2018-07-26T23:11:54.088Z,100992.66
2018-07-26T23:14:23.136Z,100996.39
2018-07-26T23:16:52.213Z,100994.67
2018-07-26T23:19:21.268Z,100995.95
2018-07-26T23:21:50.352Z,100994.00
2018-07-26T23:24:19.585Z,100998.99
2018-07-26T23:26:48.672Z,100992.44
2018-07-26T23:29:17.724Z,100998.05
2018-07-26T23:31:46.820Z,100996.86
2018-07-26T23:34:15.885Z,100991.22
2018-07-26T23:36:44.973Z,100990.56
2018-07-26T23:39:14.096Z,100994.05
2018-07-26T23:41:43.176Z,100994.77
2018-07-26T23:44:12.248Z,100991.95
2018-07-26T23:46:41.335Z,100992.16
2018-07-26T23:49:10.387Z,100989.09
2018-07-26T23:51:39.480Z,100986.52
2018-07-26T23:54:08.536Z,100987.22
2018-07-26T23:56:37.708Z,100987.73
2018-07-26T23:59:06.756Z,100986.98
